createdAt,value
2023-03-27T03:01:16.533Z,3.90
2023-03-27T03:03:53.805Z,4.00
2023-03-27T03:06:29.562Z,3.80
2023-03-27T03:09:02.091Z,3.80
2023-03-27T03:11:30.032Z,3.80
2023-03-27T03:13:57.667Z,3.80
2023-03-27T03:16:25.354Z,3.70
2023-03-27T03:18:52.554Z,3.70
2023-03-27T03:21:19.969Z,3.80
2023-03-27T03:23:57.888Z,3.90
2023-03-27T03:26:27.080Z,3.70
2023-03-27T03:29:00.572Z,3.80
2023-03-27T03:31:44.253Z,3.90
2023-03-27T03:34:16.576Z,3.80
2023-03-27T03:36:48.895Z,3.90
2023-03-27T03:39:16.822Z,3.80
2023-03-27T03:41:43.995Z,4.00
2023-03-27T03:44:11.114Z,4.00
2023-03-27T03:46:39.046Z,4.10
2023-03-27T03:49:06.972Z,4.20
2023-03-27T03:51:35.337Z,4.50
2023-03-27T03:54:05.350Z,4.50
2023-03-27T03:56:34.411Z,4.50
2023-03-27T03:59:01.765Z,4.50
2023-03-27T04:01:29.116Z,4.60
2023-03-27T04:03:56.432Z,4.60
2023-03-27T04:06:26.354Z,4.60
2023-03-27T04:08:53.761Z,4.70
2023-03-27T04:11:30.302Z,4.80
2023-03-27T04:13:57.504Z,4.80
2023-03-27T04:16:24.868Z,4.70
2023-03-27T04:18:54.532Z,4.70
2023-03-27T04:21:22.061Z,4.70
2023-03-27T04:23:49.340Z,4.60
2023-03-27T04:26:16.974Z,4.60
2023-03-27T04:28:44.150Z,4.50
2023-03-27T04:31:11.366Z,4.50
2023-03-27T04:33:39.891Z,4.50
2023-03-27T04:36:08.712Z,4.50
2023-03-27T04:38:38.102Z,4.50
2023-03-27T04:41:06.190Z,4.50
2023-03-27T04:43:36.671Z,4.50
2023-03-27T04:46:06.432Z,4.50
2023-03-27T04:48:35.030Z,4.40
2023-03-27T04:51:03.168Z,4.30
2023-03-27T04:53:32.009Z,4.30
2023-03-27T04:55:59.206Z,4.30
2023-03-27T04:58:26.421Z,4.30
2023-03-27T05:00:55.936Z,4.30
2023-03-27T05:03:24.124Z,4.30
2023-03-27T05:05:51.425Z,4.10
2023-03-27T05:08:19.114Z,4.00
2023-03-27T05:10:46.837Z,3.90
2023-03-27T05:13:14.415Z,3.90
2023-03-27T05:15:41.886Z,3.90
2023-03-27T05:18:09.595Z,3.80
2023-03-27T05:20:37.014Z,3.70
2023-03-27T05:23:04.682Z,3.70
2023-03-27T05:25:33.033Z,3.70
2023-03-27T05:28:01.081Z,3.80
2023-03-27T05:32:59.242Z,3.60
2023-03-27T05:35:28.413Z,3.60
2023-03-27T05:37:57.209Z,3.60
2023-03-27T05:40:26.223Z,3.70
2023-03-27T05:42:54.977Z,3.70
2023-03-27T05:45:23.153Z,3.70
2023-03-27T05:47:51.957Z,3.60
2023-03-27T05:50:22.064Z,3.60
2023-03-27T05:52:59.176Z,3.60
2023-03-27T05:55:28.023Z,3.70
2023-03-27T05:57:55.570Z,3.80
2023-03-27T06:00:27.349Z,3.70
2023-03-27T06:02:57.196Z,3.70
2023-03-27T06:05:26.742Z,3.70
2023-03-27T06:07:54.284Z,3.60
2023-03-27T06:10:21.980Z,3.60
2023-03-27T06:12:49.324Z,3.70
2023-03-27T06:15:16.812Z,3.60
2023-03-27T06:17:46.845Z,3.60
2023-03-27T06:20:15.304Z,3.70
2023-03-27T06:23:01.521Z,3.60
2023-03-27T06:25:32.185Z,3.60
2023-03-27T06:28:00.016Z,3.60
2023-03-27T06:30:28.922Z,3.60
2023-03-27T06:32:58.580Z,3.60
2023-03-27T06:35:31.736Z,3.60
2023-03-27T06:37:59.937Z,3.50
2023-03-27T06:40:29.186Z,3.50
2023-03-27T06:42:56.388Z,3.40
2023-03-27T06:45:26.019Z,3.40
2023-03-27T06:48:16.247Z,3.40
2023-03-27T06:50:44.452Z,3.50
2023-03-27T06:53:25.834Z,3.50
2023-03-27T06:55:55.331Z,3.50
2023-03-27T06:58:22.716Z,3.50
2023-03-27T07:00:51.072Z,3.40
2023-03-27T07:03:20.616Z,3.40
2023-03-27T07:05:49.002Z,3.40
2023-03-27T07:08:24.552Z,3.50
2023-03-27T07:11:10.671Z,3.30
2023-03-27T07:13:40.958Z,3.30
2023-03-27T07:16:11.414Z,3.40
2023-03-27T07:18:38.625Z,3.50
2023-03-27T07:21:08.192Z,3.50
2023-03-27T07:23:35.703Z,3.50
2023-03-27T07:26:03.309Z,3.60
2023-03-27T07:28:30.537Z,3.60
2023-03-27T07:30:57.824Z,3.60
2023-03-27T07:33:25.262Z,3.70
2023-03-27T07:35:52.537Z,3.70
2023-03-27T07:38:22.325Z,3.60
2023-03-27T07:40:50.386Z,3.70
2023-03-27T07:43:17.594Z,3.70
2023-03-27T07:45:44.894Z,3.70
2023-03-27T07:48:17.497Z,3.70
2023-03-27T07:50:45.137Z,3.80
2023-03-27T07:53:32.927Z,3.80
2023-03-27T07:56:00.019Z,3.60
2023-03-27T07:58:27.398Z,3.60
2023-03-27T08:00:58.111Z,3.60
2023-03-27T08:03:26.291Z,3.50
2023-03-27T08:05:58.797Z,3.50
2023-03-27T08:08:27.089Z,3.40
2023-03-27T08:10:56.876Z,3.40
2023-03-27T08:13:24.467Z,3.40
2023-03-27T08:15:51.738Z,3.50
2023-03-27T08:18:19.057Z,3.60
2023-03-27T08:20:47.834Z,3.60
2023-03-27T08:23:15.309Z,3.70
2023-03-27T08:25:42.894Z,3.70
2023-03-27T08:28:10.152Z,3.60
2023-03-27T08:30:37.424Z,3.60
2023-03-27T08:33:04.831Z,3.60
2023-03-27T08:35:32.382Z,3.60
2023-03-27T08:37:59.602Z,3.70
2023-03-27T08:40:30.831Z,3.60
2023-03-27T08:43:03.493Z,3.70
2023-03-27T08:45:41.814Z,3.70
2023-03-27T08:48:16.613Z,3.80
2023-03-27T08:50:56.755Z,3.60
2023-03-27T08:53:34.008Z,3.60
2023-03-27T08:56:03.079Z,3.40
2023-03-27T08:58:30.685Z,3.50
2023-03-27T09:01:07.182Z,3.90
2023-03-27T09:03:45.468Z,3.90
2023-03-27T09:06:23.837Z,4.20
2023-03-27T09:09:04.102Z,4.40
2023-03-27T09:11:42.922Z,4.90
2023-03-27T09:14:35.411Z,4.80
2023-03-27T09:17:15.761Z,4.70
2023-03-27T09:19:45.776Z,4.60
2023-03-27T09:22:18.651Z,4.80
2023-03-27T09:24:53.195Z,4.80
2023-03-27T09:27:33.230Z,4.80
2023-03-27T09:30:12.308Z,4.80
2023-03-27T09:32:39.863Z,4.70
2023-03-27T09:35:07.304Z,4.50
2023-03-27T09:37:36.887Z,4.40
2023-03-27T09:40:07.822Z,4.40
2023-03-27T09:42:41.699Z,4.10
2023-03-27T09:45:12.550Z,3.80
2023-03-27T09:48:02.452Z,3.90
2023-03-27T09:50:42.124Z,4.30
2023-03-27T09:53:15.102Z,4.20
2023-03-27T09:56:03.359Z,4.00
2023-03-27T09:58:36.870Z,3.90
2023-03-27T10:01:07.319Z,3.90
2023-03-27T10:03:40.795Z,3.90
2023-03-27T10:06:10.446Z,4.00
2023-03-27T10:08:45.202Z,4.00
2023-03-27T10:11:22.130Z,4.20
2023-03-27T10:13:50.918Z,4.20
2023-03-27T10:16:20.938Z,4.40
2023-03-27T10:18:53.512Z,4.50
2023-03-27T10:21:38.866Z,4.50
2023-03-27T10:24:16.808Z,4.50
2023-03-27T10:26:46.777Z,4.40
2023-03-27T10:29:30.781Z,4.00
2023-03-27T10:31:59.823Z,4.10
2023-03-27T10:34:54.349Z,4.10
2023-03-27T10:37:34.282Z,4.10
2023-03-27T10:40:03.584Z,4.10
2023-03-27T10:42:32.646Z,4.10
2023-03-27T10:45:00.426Z,4.10
2023-03-27T10:47:32.131Z,4.20
2023-03-27T10:50:08.891Z,4.10
2023-03-27T10:53:08.424Z,4.00
2023-03-27T10:55:58.230Z,4.00
2023-03-27T10:58:25.487Z,4.10
2023-03-27T11:01:04.622Z,4.10
2023-03-27T11:03:45.536Z,4.10
2023-03-27T11:06:16.470Z,4.20
2023-03-27T11:08:53.080Z,4.40
2023-03-27T11:11:27.034Z,4.70
2023-03-27T11:13:56.648Z,4.70
2023-03-27T11:16:32.384Z,4.80
2023-03-27T11:19:11.437Z,5.00
2023-03-27T11:21:52.908Z,5.00
2023-03-27T11:24:34.945Z,4.90
2023-03-27T11:27:14.374Z,5.00
2023-03-27T11:30:08.327Z,5.00
2023-03-27T11:33:06.706Z,5.10
2023-03-27T11:35:38.065Z,5.20
2023-03-27T11:38:33.689Z,5.10
2023-03-27T11:41:01.886Z,5.40
2023-03-27T11:43:29.210Z,5.40
2023-03-27T11:46:30.981Z,5.40
2023-03-27T11:49:36.968Z,5.50
2023-03-27T11:52:26.156Z,5.60
2023-03-27T11:55:25.883Z,5.60
2023-03-27T11:58:05.262Z,5.50
2023-03-27T12:00:45.897Z,5.40
2023-03-27T12:03:48.979Z,5.40
2023-03-27T12:06:36.468Z,5.60
2023-03-27T12:09:29.834Z,6.10
2023-03-27T12:12:16.530Z,6.40
2023-03-27T12:15:08.748Z,6.60
2023-03-27T12:17:54.639Z,6.80
2023-03-27T12:20:21.958Z,7.00
2023-03-27T12:23:19.198Z,7.10
2023-03-27T12:26:02.202Z,7.00
2023-03-27T12:29:00.676Z,6.90
2023-03-27T12:31:47.808Z,6.60
2023-03-27T12:34:36.268Z,6.70
2023-03-27T12:37:05.869Z,6.70
2023-03-27T12:39:56.376Z,6.80
2023-03-27T12:42:49.432Z,6.50
2023-03-27T12:45:28.374Z,6.80
2023-03-27T12:48:10.522Z,6.40
2023-03-27T12:50:45.474Z,6.60
2023-03-27T12:53:25.548Z,6.70
2023-03-27T12:56:12.335Z,7.40
2023-03-27T12:58:40.911Z,7.50
2023-03-27T13:01:10.969Z,7.50
2023-03-27T13:03:50.342Z,7.40
2023-03-27T13:06:46.445Z,7.20
2023-03-27T13:09:27.546Z,7.00
2023-03-27T13:12:33.214Z,7.20
2023-03-27T13:15:09.162Z,7.30
2023-03-27T13:17:51.080Z,7.50
2023-03-27T13:20:24.207Z,7.60
2023-03-27T13:23:29.112Z,7.70
2023-03-27T13:26:19.385Z,6.80
2023-03-27T13:28:50.648Z,6.40
2023-03-27T13:31:46.137Z,6.00
2023-03-27T13:34:27.552Z,5.90
2023-03-27T13:37:36.434Z,6.00
2023-03-27T13:40:24.629Z,5.90
2023-03-27T13:42:56.946Z,5.80
2023-03-27T13:45:32.718Z,6.00
2023-03-27T13:48:18.786Z,6.30
2023-03-27T13:51:00.783Z,6.70
2023-03-27T13:54:02.652Z,6.70
2023-03-27T13:56:44.561Z,6.40
2023-03-27T13:59:38.666Z,6.40
2023-03-27T14:02:12.745Z,6.70
2023-03-27T14:04:52.405Z,6.80
2023-03-27T14:07:31.775Z,6.80
2023-03-27T14:10:20.620Z,6.80
2023-03-27T14:12:58.165Z,6.90
2023-03-27T14:16:00.368Z,6.80
2023-03-27T14:18:45.755Z,6.50
2023-03-27T14:21:31.332Z,5.60
2023-03-27T14:24:18.229Z,5.50
2023-03-27T14:26:45.888Z,5.40
2023-03-27T14:29:15.361Z,5.50
2023-03-27T14:34:12.256Z,5.90
2023-03-27T14:36:42.136Z,5.70
2023-03-27T14:39:22.158Z,5.70
2023-03-27T14:41:55.792Z,5.70
2023-03-27T14:44:27.594Z,5.80
2023-03-27T14:47:01.892Z,6.00
2023-03-27T14:50:01.642Z,6.20
2023-03-27T14:52:37.505Z,6.20
2023-03-27T14:55:06.232Z,5.90
2023-03-27T14:57:42.884Z,6.20
2023-03-27T15:00:17.491Z,6.20
2023-03-27T15:02:48.015Z,6.20
2023-03-27T15:05:18.188Z,6.40
2023-03-27T15:07:48.938Z,6.30
2023-03-27T15:10:28.680Z,6.20
2023-03-27T15:12:56.411Z,6.00
2023-03-27T15:15:42.634Z,5.60
2023-03-27T15:18:56.378Z,5.60
2023-03-27T15:21:46.618Z,5.70
2023-03-27T15:24:43.111Z,5.80
2023-03-27T15:27:21.598Z,5.50
2023-03-27T15:30:27.159Z,5.00
2023-03-27T15:32:56.858Z,4.70
2023-03-27T15:35:38.621Z,4.70
2023-03-27T15:38:07.425Z,4.60
2023-03-27T15:40:37.498Z,5.10
2023-03-27T15:43:15.674Z,5.10
2023-03-27T15:45:54.253Z,5.40
2023-03-27T15:48:24.859Z,5.50
2023-03-27T15:50:57.735Z,5.80
2023-03-27T15:53:37.888Z,5.70
2023-03-27T15:56:19.649Z,5.50
2023-03-27T15:58:48.345Z,5.30
2023-03-27T16:01:22.499Z,4.70
2023-03-27T16:03:51.585Z,4.70
2023-03-27T16:06:28.547Z,4.80
2023-03-27T16:08:56.486Z,4.50
2023-03-27T16:11:43.808Z,4.40
2023-03-27T16:14:36.587Z,4.50
2023-03-27T16:17:44.704Z,4.50
2023-03-27T16:20:12.778Z,4.60
2023-03-27T16:22:40.415Z,4.50
2023-03-27T16:25:12.111Z,4.60
2023-03-27T16:27:46.854Z,4.50
2023-03-27T16:30:27.276Z,4.50
2023-03-27T16:32:54.951Z,4.70
2023-03-27T16:35:22.856Z,4.60
2023-03-27T16:37:50.268Z,4.60
2023-03-27T16:40:17.532Z,4.50
2023-03-27T16:42:44.787Z,4.50
2023-03-27T16:45:12.421Z,4.40
2023-03-27T16:47:41.514Z,4.40
2023-03-27T16:50:18.124Z,4.50
2023-03-27T16:52:45.422Z,4.30
2023-03-27T16:55:13.954Z,4.10
2023-03-27T16:57:42.005Z,3.80
2023-03-27T17:00:11.642Z,3.40
2023-03-27T17:02:39.221Z,3.50
2023-03-27T17:05:08.500Z,3.60
2023-03-27T17:07:36.483Z,3.70
2023-03-27T17:10:04.557Z,3.50
2023-03-27T17:12:32.233Z,3.60
2023-03-27T17:14:59.542Z,3.70
2023-03-27T17:17:30.452Z,3.80
2023-03-27T17:19:57.837Z,4.00
2023-03-27T17:22:26.488Z,4.10
2023-03-27T17:24:57.221Z,3.80
2023-03-27T17:27:26.566Z,3.60
2023-03-27T17:29:56.256Z,3.70
2023-03-27T17:32:27.041Z,3.70
2023-03-27T17:34:55.273Z,3.60
2023-03-27T17:37:22.613Z,3.60
2023-03-27T17:39:50.033Z,3.60
2023-03-27T17:42:17.792Z,3.50
2023-03-27T17:44:45.427Z,3.50
2023-03-27T17:47:13.649Z,3.50
2023-03-27T17:49:43.054Z,3.30
2023-03-27T17:52:11.954Z,3.30
2023-03-27T17:54:39.517Z,3.10
2023-03-27T17:57:06.897Z,3.00
2023-03-27T17:59:34.298Z,2.60
2023-03-27T18:02:01.714Z,2.60
2023-03-27T18:04:29.757Z,2.50
2023-03-27T18:06:57.339Z,2.70
2023-03-27T18:09:25.344Z,2.60
2023-03-27T18:11:52.660Z,2.60
2023-03-27T18:14:20.020Z,2.60
2023-03-27T18:16:47.251Z,2.70
2023-03-27T18:19:14.664Z,2.50
2023-03-27T18:21:41.967Z,2.40
2023-03-27T18:24:09.296Z,2.20
2023-03-27T18:26:36.636Z,1.80
2023-03-27T18:29:04.980Z,1.60
2023-03-27T18:31:32.263Z,1.50
2023-03-27T18:33:59.536Z,1.50
2023-03-27T18:36:27.300Z,1.60
2023-03-27T18:38:54.579Z,1.90
2023-03-27T18:41:21.867Z,2.20
2023-03-27T18:43:49.168Z,2.20
2023-03-27T18:46:17.253Z,2.20
2023-03-27T18:48:46.409Z,2.10
2023-03-27T18:51:13.741Z,2.20
2023-03-27T18:53:41.022Z,2.20
2023-03-27T18:58:36.224Z,2.10
2023-03-27T19:01:09.047Z,2.30
2023-03-27T19:03:37.891Z,2.40
2023-03-27T19:06:07.237Z,2.60
2023-03-27T19:08:37.578Z,2.80
2023-03-27T19:11:06.131Z,2.90
2023-03-27T19:13:33.496Z,2.90
2023-03-27T19:16:01.150Z,2.90
2023-03-27T19:18:41.771Z,2.80
2023-03-27T19:21:09.056Z,2.80
2023-03-27T19:23:36.208Z,2.80
2023-03-27T19:26:11.600Z,2.80
2023-03-27T19:28:40.309Z,2.80
2023-03-27T19:31:09.849Z,2.80
2023-03-27T19:33:37.795Z,2.90
2023-03-27T19:36:05.614Z,2.90
2023-03-27T19:38:33.841Z,2.70
2023-03-27T19:41:02.175Z,2.20
2023-03-27T19:43:29.370Z,2.30
2023-03-27T19:46:14.105Z,2.30
2023-03-27T19:48:43.849Z,2.30
2023-03-27T19:51:11.073Z,2.40
2023-03-27T19:53:38.253Z,2.40
2023-03-27T19:56:05.713Z,2.40
2023-03-27T19:58:32.923Z,2.50
2023-03-27T20:01:00.271Z,2.60
2023-03-27T20:03:29.329Z,2.60
2023-03-27T20:06:07.781Z,2.70
2023-03-27T20:08:39.548Z,2.70
2023-03-27T20:11:07.095Z,2.70
2023-03-27T20:13:42.488Z,2.80
2023-03-27T20:16:16.753Z,2.90
2023-03-27T20:18:44.398Z,2.90
2023-03-27T20:21:15.842Z,3.10
2023-03-27T20:23:43.245Z,2.90
2023-03-27T20:26:10.379Z,2.80
2023-03-27T20:28:37.548Z,2.70
2023-03-27T20:31:05.389Z,2.60
2023-03-27T20:33:32.843Z,2.60
2023-03-27T20:36:00.302Z,2.50
2023-03-27T20:38:31.361Z,2.30
2023-03-27T20:41:03.482Z,2.10
2023-03-27T20:43:34.742Z,2.00
2023-03-27T20:46:04.519Z,1.80
2023-03-27T20:48:41.679Z,1.50
2023-03-27T20:51:14.793Z,1.50
2023-03-27T20:53:46.215Z,1.50
2023-03-27T20:56:14.270Z,1.40
2023-03-27T20:58:42.488Z,1.50
